sensor_id;sensor_type;location;lat;lon;timestamp;temperature;humidity
73780;SHT30;62093;37.614;15.072;2022-12-08T00:00:43;16.95;65.39
73780;SHT30;62093;37.614;15.072;2022-12-08T00:03:18;16.95;65.50
73780;SHT30;62093;37.614;15.072;2022-12-08T00:05:52;16.95;65.48
73780;SHT30;62093;37.614;15.072;2022-12-08T00:08:43;16.97;65.57
73780;SHT30;62093;37.614;15.072;2022-12-08T00:11:31;16.94;65.45
73780;SHT30;62093;37.614;15.072;2022-12-08T00:13:58;16.94;65.43
73780;SHT30;62093;37.614;15.072;2022-12-08T00:16:28;16.91;65.38
73780;SHT30;62093;37.614;15.072;2022-12-08T00:18:58;16.94;65.53
73780;SHT30;62093;37.614;15.072;2022-12-08T00:21:24;16.94;65.38
73780;SHT30;62093;37.614;15.072;2022-12-08T00:23:59;16.91;65.28
73780;SHT30;62093;37.614;15.072;2022-12-08T00:26:31;16.91;65.55
73780;SHT30;62093;37.614;15.072;2022-12-08T00:29:07;16.93;65.54
73780;SHT30;62093;37.614;15.072;2022-12-08T00:31:44;16.93;65.47
73780;SHT30;62093;37.614;15.072;2022-12-08T00:34:16;16.93;65.38
73780;SHT30;62093;37.614;15.072;2022-12-08T00:36:50;16.90;65.29
73780;SHT30;62093;37.614;15.072;2022-12-08T00:39:16;16.93;65.29
73780;SHT30;62093;37.614;15.072;2022-12-08T00:41:51;16.85;65.55
73780;SHT30;62093;37.614;15.072;2022-12-08T00:44:40;16.90;65.36
73780;SHT30;62093;37.614;15.072;2022-12-08T00:47:20;16.88;65.32
73780;SHT30;62093;37.614;15.072;2022-12-08T00:49:49;16.85;65.41
73780;SHT30;62093;37.614;15.072;2022-12-08T00:52:15;16.85;65.31
73780;SHT30;62093;37.614;15.072;2022-12-08T00:54:41;16.87;65.27
73780;SHT30;62093;37.614;15.072;2022-12-08T00:57:07;16.85;65.28
73780;SHT30;62093;37.614;15.072;2022-12-08T00:59:33;16.84;65.26
73780;SHT30;62093;37.614;15.072;2022-12-08T01:01:59;16.85;65.15
73780;SHT30;62093;37.614;15.072;2022-12-08T01:04:32;16.87;65.26
73780;SHT30;62093;37.614;15.072;2022-12-08T01:07:14;16.84;65.11
73780;SHT30;62093;37.614;15.072;2022-12-08T01:09:47;16.84;65.22
73780;SHT30;62093;37.614;15.072;2022-12-08T01:12:20;16.80;65.07
73780;SHT30;62093;37.614;15.072;2022-12-08T01:14:57;16.81;65.17
73780;SHT30;62093;37.614;15.072;2022-12-08T01:17:23;16.81;65.16
73780;SHT30;62093;37.614;15.072;2022-12-08T01:20:03;16.83;65.10
73780;SHT30;62093;37.614;15.072;2022-12-08T01:22:33;16.83;64.99
73780;SHT30;62093;37.614;15.072;2022-12-08T01:25:05;16.76;64.92
73780;SHT30;62093;37.614;15.072;2022-12-08T01:27:31;16.79;65.34
73780;SHT30;62093;37.614;15.072;2022-12-08T01:30:01;16.77;64.81
73780;SHT30;62093;37.614;15.072;2022-12-08T01:32:36;16.79;65.39
73780;SHT30;62093;37.614;15.072;2022-12-08T01:35:05;16.77;65.08
73780;SHT30;62093;37.614;15.072;2022-12-08T01:37:42;16.77;64.84
73780;SHT30;62093;37.614;15.072;2022-12-08T01:40:14;16.79;65.21
73780;SHT30;62093;37.614;15.072;2022-12-08T01:42:49;16.81;65.12
73780;SHT30;62093;37.614;15.072;2022-12-08T01:45:28;16.74;65.01
73780;SHT30;62093;37.614;15.072;2022-12-08T01:48:19;16.74;65.18
73780;SHT30;62093;37.614;15.072;2022-12-08T01:50:48;16.76;65.12
73780;SHT30;62093;37.614;15.072;2022-12-08T01:53:34;16.74;65.05
73780;SHT30;62093;37.614;15.072;2022-12-08T01:56:11;16.73;65.01
73780;SHT30;62093;37.614;15.072;2022-12-08T01:58:48;16.76;65.31
73780;SHT30;62093;37.614;15.072;2022-12-08T02:01:20;16.76;65.23
73780;SHT30;62093;37.614;15.072;2022-12-08T02:04:02;16.74;65.12
73780;SHT30;62093;37.614;15.072;2022-12-08T02:06:42;16.76;65.03
73780;SHT30;62093;37.614;15.072;2022-12-08T02:09:15;16.76;65.30
73780;SHT30;62093;37.614;15.072;2022-12-08T02:11:45;16.72;65.28
73780;SHT30;62093;37.614;15.072;2022-12-08T02:14:17;16.72;65.32
73780;SHT30;62093;37.614;15.072;2022-12-08T02:20:25;16.72;65.12
73780;SHT30;62093;37.614;15.072;2022-12-08T02:28:56;16.70;64.68
73780;SHT30;62093;37.614;15.072;2022-12-08T02:32:05;16.72;64.93
73780;SHT30;62093;37.614;15.072;2022-12-08T02:34:51;16.72;64.84
73780;SHT30;62093;37.614;15.072;2022-12-08T02:37:32;16.70;64.98
73780;SHT30;62093;37.614;15.072;2022-12-08T02:40:13;16.72;64.85
73780;SHT30;62093;37.614;15.072;2022-12-08T02:42:56;16.72;64.97
73780;SHT30;62093;37.614;15.072;2022-12-08T02:45:36;16.72;65.07
73780;SHT30;62093;37.614;15.072;2022-12-08T02:48:15;16.73;65.03
73780;SHT30;62093;37.614;15.072;2022-12-08T02:50:58;16.73;64.84
73780;SHT30;62093;37.614;15.072;2022-12-08T02:53:27;16.72;64.84
73780;SHT30;62093;37.614;15.072;2022-12-08T02:59:25;16.70;64.62
73780;SHT30;62093;37.614;15.072;2022-12-08T03:05:12;16.70;64.70
73780;SHT30;62093;37.614;15.072;2022-12-08T03:07:57;16.72;64.79
73780;SHT30;62093;37.614;15.072;2022-12-08T03:13:56;16.72;64.99
73780;SHT30;62093;37.614;15.072;2022-12-08T03:16:30;16.72;64.57
73780;SHT30;62093;37.614;15.072;2022-12-08T03:19:14;16.67;64.89
73780;SHT30;62093;37.614;15.072;2022-12-08T03:21:46;16.67;64.72
73780;SHT30;62093;37.614;15.072;2022-12-08T03:24:18;16.69;64.73
73780;SHT30;62093;37.614;15.072;2022-12-08T03:27:06;16.69;64.86
73780;SHT30;62093;37.614;15.072;2022-12-08T03:29:36;16.69;64.70
73780;SHT30;62093;37.614;15.072;2022-12-08T03:35:27;16.66;65.04
73780;SHT30;62093;37.614;15.072;2022-12-08T03:38:11;16.67;64.71
73780;SHT30;62093;37.614;15.072;2022-12-08T03:40:42;16.64;64.88
73780;SHT30;62093;37.614;15.072;2022-12-08T03:43:35;16.64;64.93
73780;SHT30;62093;37.614;15.072;2022-12-08T03:46:18;16.63;64.89
73780;SHT30;62093;37.614;15.072;2022-12-08T03:48:54;16.64;65.09
73780;SHT30;62093;37.614;15.072;2022-12-08T03:51:22;16.66;64.77
73780;SHT30;62093;37.614;15.072;2022-12-08T03:53:49;16.64;65.17
73780;SHT30;62093;37.614;15.072;2022-12-08T03:56:23;16.63;65.13
73780;SHT30;62093;37.614;15.072;2022-12-08T03:58:53;16.62;65.06
73780;SHT30;62093;37.614;15.072;2022-12-08T04:01:20;16.62;64.94
73780;SHT30;62093;37.614;15.072;2022-12-08T04:03:49;16.59;64.70
73780;SHT30;62093;37.614;15.072;2022-12-08T04:06:19;16.59;64.99
73780;SHT30;62093;37.614;15.072;2022-12-08T04:08:56;16.57;65.03
73780;SHT30;62093;37.614;15.072;2022-12-08T04:11:35;16.57;65.13
73780;SHT30;62093;37.614;15.072;2022-12-08T04:14:18;16.55;64.82
73780;SHT30;62093;37.614;15.072;2022-12-08T04:16:44;16.59;65.18
73780;SHT30;62093;37.614;15.072;2022-12-08T04:19:23;16.59;65.14
73780;SHT30;62093;37.614;15.072;2022-12-08T04:21:58;16.57;64.91
73780;SHT30;62093;37.614;15.072;2022-12-08T04:24:33;16.56;64.72
73780;SHT30;62093;37.614;15.072;2022-12-08T04:27:09;16.57;64.76
73780;SHT30;62093;37.614;15.072;2022-12-08T04:29:38;16.56;65.19
73780;SHT30;62093;37.614;15.072;2022-12-08T04:32:07;16.55;65.05
73780;SHT30;62093;37.614;15.072;2022-12-08T04:34:48;16.55;64.94
73780;SHT30;62093;37.614;15.072;2022-12-08T04:37:17;16.53;64.92
73780;SHT30;62093;37.614;15.072;2022-12-08T04:39:46;16.51;65.21
73780;SHT30;62093;37.614;15.072;2022-12-08T04:42:20;16.51;64.93
73780;SHT30;62093;37.614;15.072;2022-12-08T04:44:50;16.53;65.42
73780;SHT30;62093;37.614;15.072;2022-12-08T04:47:16;16.52;65.54
73780;SHT30;62093;37.614;15.072;2022-12-08T04:49:52;16.51;65.15
73780;SHT30;62093;37.614;15.072;2022-12-08T04:52:26;16.53;65.45
73780;SHT30;62093;37.614;15.072;2022-12-08T04:55:08;16.55;64.95
73780;SHT30;62093;37.614;15.072;2022-12-08T04:57:44;16.52;65.33
73780;SHT30;62093;37.614;15.072;2022-12-08T05:00:22;16.53;65.14
73780;SHT30;62093;37.614;15.072;2022-12-08T05:03:00;16.51;65.26
73780;SHT30;62093;37.614;15.072;2022-12-08T05:05:26;16.51;65.33
73780;SHT30;62093;37.614;15.072;2022-12-08T05:07:58;16.53;65.41
73780;SHT30;62093;37.614;15.072;2022-12-08T05:10:30;16.53;65.36
73780;SHT30;62093;37.614;15.072;2022-12-08T05:12:59;16.56;65.44
73780;SHT30;62093;37.614;15.072;2022-12-08T05:15:31;16.60;65.19
73780;SHT30;62093;37.614;15.072;2022-12-08T05:17:57;16.60;65.26
73780;SHT30;62093;37.614;15.072;2022-12-08T05:20:30;16.57;65.26
73780;SHT30;62093;37.614;15.072;2022-12-08T05:23:08;16.56;65.23
73780;SHT30;62093;37.614;15.072;2022-12-08T05:25:40;16.60;65.20
73780;SHT30;62093;37.614;15.072;2022-12-08T05:28:09;16.57;65.33
73780;SHT30;62093;37.614;15.072;2022-12-08T05:30:51;16.59;65.21
73780;SHT30;62093;37.614;15.072;2022-12-08T05:33:27;16.59;64.88
73780;SHT30;62093;37.614;15.072;2022-12-08T05:35:53;16.59;64.86
73780;SHT30;62093;37.614;15.072;2022-12-08T05:38:26;16.60;65.26
73780;SHT30;62093;37.614;15.072;2022-12-08T05:41:18;16.59;65.13
73780;SHT30;62093;37.614;15.072;2022-12-08T05:43:51;16.60;65.14
73780;SHT30;62093;37.614;15.072;2022-12-08T05:46:17;16.55;65.20
73780;SHT30;62093;37.614;15.072;2022-12-08T05:48:50;16.57;65.24
73780;SHT30;62093;37.614;15.072;2022-12-08T05:51:31;16.62;65.13
73780;SHT30;62093;37.614;15.072;2022-12-08T05:54:04;16.57;64.97
73780;SHT30;62093;37.614;15.072;2022-12-08T05:56:38;16.55;65.21
73780;SHT30;62093;37.614;15.072;2022-12-08T05:59:11;16.57;65.05
73780;SHT30;62093;37.614;15.072;2022-12-08T06:01:44;16.53;65.12
73780;SHT30;62093;37.614;15.072;2022-12-08T06:04:10;16.55;64.98
73780;SHT30;62093;37.614;15.072;2022-12-08T06:06:39;16.57;65.07
73780;SHT30;62093;37.614;15.072;2022-12-08T06:09:16;16.57;64.98
73780;SHT30;62093;37.614;15.072;2022-12-08T06:12:17;16.56;64.98
73780;SHT30;62093;37.614;15.072;2022-12-08T06:14:47;16.57;65.10
73780;SHT30;62093;37.614;15.072;2022-12-08T06:17:13;16.53;64.99
73780;SHT30;62093;37.614;15.072;2022-12-08T06:19:39;16.59;65.22
73780;SHT30;62093;37.614;15.072;2022-12-08T06:22:07;16.56;64.82
73780;SHT30;62093;37.614;15.072;2022-12-08T06:24:33;16.56;65.39
73780;SHT30;62093;37.614;15.072;2022-12-08T06:26:59;16.59;64.88
73780;SHT30;62093;37.614;15.072;2022-12-08T06:29:32;16.57;64.84
73780;SHT30;62093;37.614;15.072;2022-12-08T06:32:04;16.60;64.87
73780;SHT30;62093;37.614;15.072;2022-12-08T06:34:33;16.60;64.93
73780;SHT30;62093;37.614;15.072;2022-12-08T06:37:08;16.59;65.25
73780;SHT30;62093;37.614;15.072;2022-12-08T06:39:46;16.62;65.07
73780;SHT30;62093;37.614;15.072;2022-12-08T06:42:22;16.63;65.02
73780;SHT30;62093;37.614;15.072;2022-12-08T06:45:14;16.62;65.38
73780;SHT30;62093;37.614;15.072;2022-12-08T06:48:00;16.60;65.01
73780;SHT30;62093;37.614;15.072;2022-12-08T06:50:32;16.60;65.00
73780;SHT30;62093;37.614;15.072;2022-12-08T06:53:05;16.60;65.24
73780;SHT30;62093;37.614;15.072;2022-12-08T06:55:46;16.60;65.11
73780;SHT30;62093;37.614;15.072;2022-12-08T06:58:17;16.59;65.18
73780;SHT30;62093;37.614;15.072;2022-12-08T07:00:49;16.62;65.09
73780;SHT30;62093;37.614;15.072;2022-12-08T07:03:21;16.59;65.26
73780;SHT30;62093;37.614;15.072;2022-12-08T07:05:54;16.57;65.15
73780;SHT30;62093;37.614;15.072;2022-12-08T07:08:30;16.59;65.23
73780;SHT30;62093;37.614;15.072;2022-12-08T07:11:14;16.60;65.39
73780;SHT30;62093;37.614;15.072;2022-12-08T07:13:43;16.55;65.47
73780;SHT30;62093;37.614;15.072;2022-12-08T07:16:21;16.57;65.37
73780;SHT30;62093;37.614;15.072;2022-12-08T07:18:53;16.62;65.32
73780;SHT30;62093;37.614;15.072;2022-12-08T07:21:38;16.60;65.48
73780;SHT30;62093;37.614;15.072;2022-12-08T07:24:19;16.59;65.57
73780;SHT30;62093;37.614;15.072;2022-12-08T07:26:57;16.59;65.45
73780;SHT30;62093;37.614;15.072;2022-12-08T07:29:36;16.59;65.35
73780;SHT30;62093;37.614;15.072;2022-12-08T07:32:13;16.57;65.39
73780;SHT30;62093;37.614;15.072;2022-12-08T07:34:42;16.57;65.55
73780;SHT30;62093;37.614;15.072;2022-12-08T07:37:11;16.59;65.42
73780;SHT30;62093;37.614;15.072;2022-12-08T07:39:37;16.59;65.57
73780;SHT30;62093;37.614;15.072;2022-12-08T07:42:04;16.60;65.70
73780;SHT30;62093;37.614;15.072;2022-12-08T07:45:07;16.62;65.50
73780;SHT30;62093;37.614;15.072;2022-12-08T07:47:44;16.64;65.65
73780;SHT30;62093;37.614;15.072;2022-12-08T07:50:11;16.62;65.66
73780;SHT30;62093;37.614;15.072;2022-12-08T07:52:37;16.62;65.60
73780;SHT30;62093;37.614;15.072;2022-12-08T07:55:08;16.62;65.72
73780;SHT30;62093;37.614;15.072;2022-12-08T07:57:34;16.66;65.60
73780;SHT30;62093;37.614;15.072;2022-12-08T08:00:08;16.64;65.67
73780;SHT30;62093;37.614;15.072;2022-12-08T08:02:41;16.63;65.63
73780;SHT30;62093;37.614;15.072;2022-12-08T08:05:14;16.66;65.65
73780;SHT30;62093;37.614;15.072;2022-12-08T08:07:56;16.69;65.74
73780;SHT30;62093;37.614;15.072;2022-12-08T08:10:22;16.70;65.67
73780;SHT30;62093;37.614;15.072;2022-12-08T08:12:48;16.70;65.66
73780;SHT30;62093;37.614;15.072;2022-12-08T08:15:17;16.69;65.65
73780;SHT30;62093;37.614;15.072;2022-12-08T08:17:58;16.70;65.69
73780;SHT30;62093;37.614;15.072;2022-12-08T08:20:28;16.72;65.64
73780;SHT30;62093;37.614;15.072;2022-12-08T08:23:02;16.70;65.56
73780;SHT30;62093;37.614;15.072;2022-12-08T08:25:41;16.74;65.51
73780;SHT30;62093;37.614;15.072;2022-12-08T08:28:17;16.74;65.53
73780;SHT30;62093;37.614;15.072;2022-12-08T08:30:51;16.73;65.48
73780;SHT30;62093;37.614;15.072;2022-12-08T08:33:21;16.73;65.57
73780;SHT30;62093;37.614;15.072;2022-12-08T08:35:55;16.76;65.47
73780;SHT30;62093;37.614;15.072;2022-12-08T08:38:28;16.76;65.50
73780;SHT30;62093;37.614;15.072;2022-12-08T08:41:05;16.79;65.37
73780;SHT30;62093;37.614;15.072;2022-12-08T08:43:37;16.74;65.11
73780;SHT30;62093;37.614;15.072;2022-12-08T08:46:04;16.76;65.13
73780;SHT30;62093;37.614;15.072;2022-12-08T08:48:40;16.77;65.22
73780;SHT30;62093;37.614;15.072;2022-12-08T08:51:12;16.80;65.08
73780;SHT30;62093;37.614;15.072;2022-12-08T08:53:41;16.77;65.12
73780;SHT30;62093;37.614;15.072;2022-12-08T08:56:15;16.79;65.16
73780;SHT30;62093;37.614;15.072;2022-12-08T08:58:52;16.81;65.22
73780;SHT30;62093;37.614;15.072;2022-12-08T09:01:36;16.84;65.17
73780;SHT30;62093;37.614;15.072;2022-12-08T09:04:13;16.83;65.12
73780;SHT30;62093;37.614;15.072;2022-12-08T09:06:43;16.83;64.86
73780;SHT30;62093;37.614;15.072;2022-12-08T09:09:18;16.85;65.01
73780;SHT30;62093;37.614;15.072;2022-12-08T09:11:45;16.85;64.99
73780;SHT30;62093;37.614;15.072;2022-12-08T09:14:16;16.85;64.86
73780;SHT30;62093;37.614;15.072;2022-12-08T09:16:43;16.91;64.80
73780;SHT30;62093;37.614;15.072;2022-12-08T09:19:11;16.91;64.86
73780;SHT30;62093;37.614;15.072;2022-12-08T09:21:50;16.93;64.75
73780;SHT30;62093;37.614;15.072;2022-12-08T09:24:31;16.91;64.82
73780;SHT30;62093;37.614;15.072;2022-12-08T09:26:57;16.90;64.74
73780;SHT30;62093;37.614;15.072;2022-12-08T09:29:41;16.93;64.80
73780;SHT30;62093;37.614;15.072;2022-12-08T09:32:11;16.97;64.74
73780;SHT30;62093;37.614;15.072;2022-12-08T09:35:10;16.94;64.77
73780;SHT30;62093;37.614;15.072;2022-12-08T09:37:48;16.94;64.94
73780;SHT30;62093;37.614;15.072;2022-12-08T09:40:27;16.97;64.64
73780;SHT30;62093;37.614;15.072;2022-12-08T09:45:38;16.97;64.65
73780;SHT30;62093;37.614;15.072;2022-12-08T09:48:26;16.99;64.63
73780;SHT30;62093;37.614;15.072;2022-12-08T09:51:10;17.01;64.62
73780;SHT30;62093;37.614;15.072;2022-12-08T09:56:43;17.04;64.61
73780;SHT30;62093;37.614;15.072;2022-12-08T09:59:32;17.04;64.73
73780;SHT30;62093;37.614;15.072;2022-12-08T10:02:01;17.06;64.39
73780;SHT30;62093;37.614;15.072;2022-12-08T10:04:38;17.04;64.42
73780;SHT30;62093;37.614;15.072;2022-12-08T10:07:41;17.07;64.50
73780;SHT30;62093;37.614;15.072;2022-12-08T10:10:28;17.10;64.37
73780;SHT30;62093;37.614;15.072;2022-12-08T10:13:21;17.08;64.25
73780;SHT30;62093;37.614;15.072;2022-12-08T10:19:00;17.10;64.25
73780;SHT30;62093;37.614;15.072;2022-12-08T10:21:41;17.11;64.31
73780;SHT30;62093;37.614;15.072;2022-12-08T10:24:28;17.15;64.34
73780;SHT30;62093;37.614;15.072;2022-12-08T10:27:07;17.11;64.17
73780;SHT30;62093;37.614;15.072;2022-12-08T10:30:01;17.15;64.25
73780;SHT30;62093;37.614;15.072;2022-12-08T10:32:52;17.14;64.31
73780;SHT30;62093;37.614;15.072;2022-12-08T10:35:22;17.15;64.19
73780;SHT30;62093;37.614;15.072;2022-12-08T10:38:01;17.20;64.20
73780;SHT30;62093;37.614;15.072;2022-12-08T10:40:38;17.18;64.11
73780;SHT30;62093;37.614;15.072;2022-12-08T10:43:23;17.17;64.12
73780;SHT30;62093;37.614;15.072;2022-12-08T10:49:20;17.21;64.42
73780;SHT30;62093;37.614;15.072;2022-12-08T10:51:55;17.18;64.53
73780;SHT30;62093;37.614;15.072;2022-12-08T10:54:35;17.20;64.45
73780;SHT30;62093;37.614;15.072;2022-12-08T10:57:19;17.20;64.48
73780;SHT30;62093;37.614;15.072;2022-12-08T10:59:46;17.21;64.49
73780;SHT30;62093;37.614;15.072;2022-12-08T11:02:33;17.23;64.55
73780;SHT30;62093;37.614;15.072;2022-12-08T11:05:14;17.24;64.34
73780;SHT30;62093;37.614;15.072;2022-12-08T11:07:49;17.25;64.42
73780;SHT30;62093;37.614;15.072;2022-12-08T11:10:31;17.27;64.52
73780;SHT30;62093;37.614;15.072;2022-12-08T11:13:26;17.27;64.48
73780;SHT30;62093;37.614;15.072;2022-12-08T11:16:11;17.27;64.56
73780;SHT30;62093;37.614;15.072;2022-12-08T11:18:43;17.28;64.51
73780;SHT30;62093;37.614;15.072;2022-12-08T11:21:40;17.28;64.52
73780;SHT30;62093;37.614;15.072;2022-12-08T11:24:23;17.28;64.52
73780;SHT30;62093;37.614;15.072;2022-12-08T11:27:04;17.32;64.52
73780;SHT30;62093;37.614;15.072;2022-12-08T11:29:43;17.31;64.47
73780;SHT30;62093;37.614;15.072;2022-12-08T11:32:18;17.34;64.44
73780;SHT30;62093;37.614;15.072;2022-12-08T11:35:05;17.32;64.32
73780;SHT30;62093;37.614;15.072;2022-12-08T11:37:43;17.32;64.34
73780;SHT30;62093;37.614;15.072;2022-12-08T11:40:23;17.34;64.38
73780;SHT30;62093;37.614;15.072;2022-12-08T11:43:07;17.34;64.41
73780;SHT30;62093;37.614;15.072;2022-12-08T11:46:16;17.36;64.44
73780;SHT30;62093;37.614;15.072;2022-12-08T11:48:58;17.35;64.34
73780;SHT30;62093;37.614;15.072;2022-12-08T11:52:00;17.38;64.36
73780;SHT30;62093;37.614;15.072;2022-12-08T11:54:54;17.36;64.29
73780;SHT30;62093;37.614;15.072;2022-12-08T11:57:27;17.38;64.33
73780;SHT30;62093;37.614;15.072;2022-12-08T12:00:03;17.39;64.31
73780;SHT30;62093;37.614;15.072;2022-12-08T12:02:55;17.38;64.35
73780;SHT30;62093;37.614;15.072;2022-12-08T12:15:48;17.44;64.30
73780;SHT30;62093;37.614;15.072;2022-12-08T12:21:05;17.44;64.27
73780;SHT30;62093;37.614;15.072;2022-12-08T12:24:09;17.44;64.20
73780;SHT30;62093;37.614;15.072;2022-12-08T12:29:34;17.42;64.27
73780;SHT30;62093;37.614;15.072;2022-12-08T12:32:12;17.45;64.23
73780;SHT30;62093;37.614;15.072;2022-12-08T12:34:56;17.45;64.20
73780;SHT30;62093;37.614;15.072;2022-12-08T12:37:47;17.46;64.10
73780;SHT30;62093;37.614;15.072;2022-12-08T12:40:28;17.45;64.15
73780;SHT30;62093;37.614;15.072;2022-12-08T12:45:37;17.44;64.18
73780;SHT30;62093;37.614;15.072;2022-12-08T12:48:16;17.46;64.17
73780;SHT30;62093;37.614;15.072;2022-12-08T12:51:06;17.46;64.10
73780;SHT30;62093;37.614;15.072;2022-12-08T12:54:26;17.49;64.03
73780;SHT30;62093;37.614;15.072;2022-12-08T13:02:56;17.46;63.93
73780;SHT30;62093;37.614;15.072;2022-12-08T13:05:32;17.48;63.88
73780;SHT30;62093;37.614;15.072;2022-12-08T13:08:21;17.51;63.66
73780;SHT30;62093;37.614;15.072;2022-12-08T13:11:07;17.55;63.94
73780;SHT30;62093;37.614;15.072;2022-12-08T13:14:01;17.49;63.96
73780;SHT30;62093;37.614;15.072;2022-12-08T13:16:36;17.51;63.99
73780;SHT30;62093;37.614;15.072;2022-12-08T13:19:13;17.55;64.01
73780;SHT30;62093;37.614;15.072;2022-12-08T13:21:52;17.54;63.90
73780;SHT30;62093;37.614;15.072;2022-12-08T13:29:33;17.55;63.96
73780;SHT30;62093;37.614;15.072;2022-12-08T13:35:25;17.54;63.93
73780;SHT30;62093;37.614;15.072;2022-12-08T13:38:01;17.55;63.91
73780;SHT30;62093;37.614;15.072;2022-12-08T13:40:41;17.55;63.85
73780;SHT30;62093;37.614;15.072;2022-12-08T13:46:49;17.59;63.91
73780;SHT30;62093;37.614;15.072;2022-12-08T13:49:32;17.58;63.88
73780;SHT30;62093;37.614;15.072;2022-12-08T13:55:46;17.59;63.92
73780;SHT30;62093;37.614;15.072;2022-12-08T13:58:30;17.58;63.87
73780;SHT30;62093;37.614;15.072;2022-12-08T14:06:50;17.59;63.75
73780;SHT30;62093;37.614;15.072;2022-12-08T14:09:31;17.55;63.92
73780;SHT30;62093;37.614;15.072;2022-12-08T14:14:41;17.59;63.88
73780;SHT30;62093;37.614;15.072;2022-12-08T14:17:27;17.59;64.00
73780;SHT30;62093;37.614;15.072;2022-12-08T14:22:44;17.62;63.94
73780;SHT30;62093;37.614;15.072;2022-12-08T14:25:18;17.61;63.96
73780;SHT30;62093;37.614;15.072;2022-12-08T14:28:00;17.61;63.98
73780;SHT30;62093;37.614;15.072;2022-12-08T14:30:51;17.58;63.96
73780;SHT30;62093;37.614;15.072;2022-12-08T14:33:37;17.59;63.92
73780;SHT30;62093;37.614;15.072;2022-12-08T14:36:07;17.59;63.96
73780;SHT30;62093;37.614;15.072;2022-12-08T14:38:52;17.59;63.93
73780;SHT30;62093;37.614;15.072;2022-12-08T14:41:33;17.59;63.97
73780;SHT30;62093;37.614;15.072;2022-12-08T14:44:23;17.58;63.94
73780;SHT30;62093;37.614;15.072;2022-12-08T14:47:17;17.58;63.95
73780;SHT30;62093;37.614;15.072;2022-12-08T14:49:43;17.65;63.91
73780;SHT30;62093;37.614;15.072;2022-12-08T14:52:13;17.65;63.85
73780;SHT30;62093;37.614;15.072;2022-12-08T14:54:47;17.65;63.79
73780;SHT30;62093;37.614;15.072;2022-12-08T14:57:15;17.58;63.88
73780;SHT30;62093;37.614;15.072;2022-12-08T14:59:49;17.61;63.90
73780;SHT30;62093;37.614;15.072;2022-12-08T15:05:11;17.61;63.90
73780;SHT30;62093;37.614;15.072;2022-12-08T15:07:55;17.59;63.93
73780;SHT30;62093;37.614;15.072;2022-12-08T15:10:37;17.58;63.98
73780;SHT30;62093;37.614;15.072;2022-12-08T15:15:54;17.59;63.96
73780;SHT30;62093;37.614;15.072;2022-12-08T15:18:40;17.56;63.86
73780;SHT30;62093;37.614;15.072;2022-12-08T15:21:11;17.58;63.75
73780;SHT30;62093;37.614;15.072;2022-12-08T15:23:54;17.56;63.69
73780;SHT30;62093;37.614;15.072;2022-12-08T15:26:46;17.55;63.55
73780;SHT30;62093;37.614;15.072;2022-12-08T15:29:27;17.55;63.41
73780;SHT30;62093;37.614;15.072;2022-12-08T15:31:57;17.54;63.43
73780;SHT30;62093;37.614;15.072;2022-12-08T15:34:33;17.55;63.34
73780;SHT30;62093;37.614;15.072;2022-12-08T15:37:22;17.54;63.45
73780;SHT30;62093;37.614;15.072;2022-12-08T15:39:55;17.54;63.49
73780;SHT30;62093;37.614;15.072;2022-12-08T15:42:24;17.55;63.47
73780;SHT30;62093;37.614;15.072;2022-12-08T15:44:59;17.52;63.73
73780;SHT30;62093;37.614;15.072;2022-12-08T15:47:26;17.52;63.75
73780;SHT30;62093;37.614;15.072;2022-12-08T15:52:39;17.52;63.73
73780;SHT30;62093;37.614;15.072;2022-12-08T15:55:11;17.49;63.77
73780;SHT30;62093;37.614;15.072;2022-12-08T15:57:58;17.48;63.77
73780;SHT30;62093;37.614;15.072;2022-12-08T16:00:38;17.49;63.81
73780;SHT30;62093;37.614;15.072;2022-12-08T16:03:08;17.51;63.89
73780;SHT30;62093;37.614;15.072;2022-12-08T16:05:53;17.46;63.86
73780;SHT30;62093;37.614;15.072;2022-12-08T16:08:34;17.45;63.88
73780;SHT30;62093;37.614;15.072;2022-12-08T16:11:09;17.48;63.86
73780;SHT30;62093;37.614;15.072;2022-12-08T16:14:04;17.46;63.97
73780;SHT30;62093;37.614;15.072;2022-12-08T16:16:35;17.45;64.04
73780;SHT30;62093;37.614;15.072;2022-12-08T16:19:12;17.46;64.08
73780;SHT30;62093;37.614;15.072;2022-12-08T16:21:54;17.46;63.93
73780;SHT30;62093;37.614;15.072;2022-12-08T16:24:23;17.46;64.07
73780;SHT30;62093;37.614;15.072;2022-12-08T16:27:02;17.45;64.04
73780;SHT30;62093;37.614;15.072;2022-12-08T16:29:29;17.42;64.01
73780;SHT30;62093;37.614;15.072;2022-12-08T16:32:02;17.44;64.03
73780;SHT30;62093;37.614;15.072;2022-12-08T16:34:34;17.44;64.09
73780;SHT30;62093;37.614;15.072;2022-12-08T16:37:17;17.39;64.09
73780;SHT30;62093;37.614;15.072;2022-12-08T16:39:56;17.41;64.08
73780;SHT30;62093;37.614;15.072;2022-12-08T16:42:29;17.39;64.18
73780;SHT30;62093;37.614;15.072;2022-12-08T16:48:08;17.38;64.18
73780;SHT30;62093;37.614;15.072;2022-12-08T16:50:54;17.36;64.19
73780;SHT30;62093;37.614;15.072;2022-12-08T16:53:29;17.39;64.15
73780;SHT30;62093;37.614;15.072;2022-12-08T16:56:03;17.38;64.19
73780;SHT30;62093;37.614;15.072;2022-12-08T16:58:32;17.36;64.18
73780;SHT30;62093;37.614;15.072;2022-12-08T17:00:59;17.35;64.14
73780;SHT30;62093;37.614;15.072;2022-12-08T17:03:35;17.34;64.28
73780;SHT30;62093;37.614;15.072;2022-12-08T17:06:24;17.34;64.13
73780;SHT30;62093;37.614;15.072;2022-12-08T17:09:23;17.32;64.24
73780;SHT30;62093;37.614;15.072;2022-12-08T17:12:05;17.32;64.20
73780;SHT30;62093;37.614;15.072;2022-12-08T17:14:37;17.32;64.12
73780;SHT30;62093;37.614;15.072;2022-12-08T17:17:04;17.30;64.10
73780;SHT30;62093;37.614;15.072;2022-12-08T17:19:36;17.27;64.15
73780;SHT30;62093;37.614;15.072;2022-12-08T17:22:06;17.30;64.09
73780;SHT30;62093;37.614;15.072;2022-12-08T17:24:38;17.28;64.19
73780;SHT30;62093;37.614;15.072;2022-12-08T17:27:05;17.25;64.02
73780;SHT30;62093;37.614;15.072;2022-12-08T17:29:45;17.21;64.05
73780;SHT30;62093;37.614;15.072;2022-12-08T17:32:11;17.25;64.22
73780;SHT30;62093;37.614;15.072;2022-12-08T17:34:49;17.28;64.13
73780;SHT30;62093;37.614;15.072;2022-12-08T17:37:22;17.30;63.87
73780;SHT30;62093;37.614;15.072;2022-12-08T17:39:57;17.31;64.03
73780;SHT30;62093;37.614;15.072;2022-12-08T17:42:23;17.28;63.63
73780;SHT30;62093;37.614;15.072;2022-12-08T17:45:01;17.30;63.74
73780;SHT30;62093;37.614;15.072;2022-12-08T17:47:28;17.25;63.80
73780;SHT30;62093;37.614;15.072;2022-12-08T17:49:58;17.25;63.64